Time;durP1;ratioP1;P1;durP2;ratioP2;P2;SDS_P1;SDS_P2;PMS_P1;PMS_P2;Temp;Humidity;BMP_temperature;BMP_pressure;BME280_temperature;BME280_humidity;BME280_pressure;Samples;Min_cycle;Max_cycle;Signal;HPM_P1;HPM_P2
2023/08/06 00:00:22;;;;;;;2.25;2.08;;;21.20;76.60;;;;;;5009434;28;20180;-70
2023/08/06 00:02:49;;;;;;;2.03;1.92;;;21.20;76.60;;;;;;4994037;28;20185;-69
2023/08/06 00:05:17;;;;;;;2.20;2.10;;;21.20;76.60;;;;;;4980312;28;20191;-70
2023/08/06 00:07:45;;;;;;;2.42;2.00;;;21.20;76.60;;;;;;4996735;28;20215;-70
2023/08/06 00:10:11;;;;;;;2.53;2.33;;;21.20;76.60;;;;;;4978339;28;20326;-70
2023/08/06 00:12:37;;;;;;;2.95;2.25;;;21.20;76.60;;;;;;4991393;28;20192;-69
2023/08/06 00:15:03;;;;;;;2.15;1.98;;;21.20;76.60;;;;;;4988492;28;20188;-70
2023/08/06 00:17:29;;;;;;;3.10;2.13;;;21.20;76.60;;;;;;5002164;28;20220;-70
2023/08/06 00:19:54;;;;;;;2.20;1.92;;;21.20;76.70;;;;;;5012959;28;20242;-70
2023/08/06 00:22:20;;;;;;;2.10;2.00;;;21.20;76.70;;;;;;4988409;28;20188;-70
2023/08/06 00:24:46;;;;;;;2.35;2.15;;;21.20;76.70;;;;;;4988599;28;20640;-70
2023/08/06 00:27:11;;;;;;;2.08;1.98;;;21.20;76.70;;;;;;4987107;28;20295;-70
2023/08/06 00:29:37;;;;;;;2.38;2.17;;;21.10;76.60;;;;;;4980437;28;20234;-71
2023/08/06 00:32:03;;;;;;;2.38;2.17;;;21.20;76.60;;;;;;4986933;28;20580;-68
2023/08/06 00:34:29;;;;;;;2.58;2.05;;;21.10;76.60;;;;;;4972846;28;20188;-70
2023/08/06 00:36:54;;;;;;;2.33;2.20;;;21.20;76.60;;;;;;5013510;28;20620;-70
2023/08/06 00:39:20;;;;;;;2.58;2.38;;;21.20;76.60;;;;;;4979801;28;20196;-69
2023/08/06 00:41:46;;;;;;;2.25;2.15;;;21.20;76.60;;;;;;4989339;28;20223;-70
2023/08/06 00:44:12;;;;;;;1.90;1.80;;;21.10;76.50;;;;;;4992890;28;20180;-70
2023/08/06 00:46:39;;;;;;;2.25;1.80;;;21.10;76.50;;;;;;4979275;28;20296;-70
2023/08/06 00:49:05;;;;;;;1.83;1.73;;;21.10;76.50;;;;;;4992593;28;20244;-70
2023/08/06 00:51:32;;;;;;;1.77;1.67;;;21.10;76.50;;;;;;4965408;28;20192;-70
2023/08/06 00:53:58;;;;;;;2.17;2.08;;;21.10;76.50;;;;;;4996879;28;20231;-70
2023/08/06 00:56:25;;;;;;;1.90;1.80;;;21.10;76.50;;;;;;5000505;28;20192;-69
2023/08/06 00:58:52;;;;;;;2.22;2.13;;;21.10;76.50;;;;;;4984319;28;20272;-70
2023/08/06 01:01:17;;;;;;;1.90;1.80;;;21.10;76.50;;;;;;4994146;28;20189;-70
2023/08/06 01:03:43;;;;;;;2.20;2.10;;;21.10;76.40;;;;;;4989523;28;20193;-70
2023/08/06 01:06:09;;;;;;;2.10;1.90;;;21.10;76.40;;;;;;4985348;28;20280;-70
2023/08/06 01:08:53;;;;;;;2.08;1.88;;;21.10;76.40;;;;;;4971935;28;20696;-70
2023/08/06 01:11:38;;;;;;;1.80;1.70;;;21.10;76.40;;;;;;5003279;28;20219;-71
2023/08/06 01:14:32;;;;;;;1.80;1.70;;;21.10;76.50;;;;;;4968872;28;20184;-70
2023/08/06 01:16:59;;;;;;;2.00;1.80;;;21.10;76.40;;;;;;4979182;28;20266;-70
2023/08/06 01:19:25;;;;;;;2.00;1.90;;;21.10;76.50;;;;;;5003572;28;20184;-70
2023/08/06 01:21:50;;;;;;;2.00;1.90;;;21.10;76.40;;;;;;4995300;28;20188;-70
2023/08/06 01:24:16;;;;;;;1.90;1.80;;;21.10;76.40;;;;;;4995538;28;20235;-69
2023/08/06 01:26:54;;;;;;;1.80;1.70;;;21.10;76.30;;;;;;4989521;28;20191;-70
2023/08/06 01:29:33;;;;;;;1.77;1.67;;;21.10;76.30;;;;;;4976398;28;20239;-70
2023/08/06 01:32:01;;;;;;;2.00;1.90;;;21.10;76.40;;;;;;4983791;28;20227;-69
2023/08/06 01:34:32;;;;;;;1.90;1.80;;;21.10;76.30;;;;;;5011472;28;20180;-69
2023/08/06 01:37:01;;;;;;;2.05;1.95;;;21.10;76.30;;;;;;4978681;28;20219;-70
2023/08/06 01:39:27;;;;;;;1.80;1.70;;;21.10;76.30;;;;;;4970987;28;20191;-70
2023/08/06 01:41:53;;;;;;;2.10;1.90;;;21.10;76.30;;;;;;4988144;28;20180;-70
2023/08/06 01:44:18;;;;;;;2.08;1.83;;;21.10;76.30;;;;;;4991366;28;20184;-70
2023/08/06 01:46:44;;;;;;;1.90;1.80;;;21.10;76.30;;;;;;4964000;28;20184;-70
2023/08/06 01:49:10;;;;;;;1.73;1.63;;;21.10;76.40;;;;;;4993678;28;20223;-70
2023/08/06 01:51:36;;;;;;;1.80;1.70;;;21.10;76.30;;;;;;4979829;28;20596;-70
2023/08/06 01:54:01;;;;;;;1.90;1.70;;;21.10;76.30;;;;;;4967656;28;20185;-70
2023/08/06 01:56:27;;;;;;;1.75;1.65;;;21.10;76.30;;;;;;4974814;28;20181;-70
2023/08/06 01:58:53;;;;;;;1.90;1.77;;;21.10;76.30;;;;;;4989801;28;20196;-70
2023/08/06 02:01:18;;;;;;;1.90;1.80;;;21.10;76.30;;;;;;4978323;28;20203;-70
2023/08/06 02:03:44;;;;;;;1.75;1.65;;;21.10;76.30;;;;;;4978625;28;20194;-70
2023/08/06 02:06:10;;;;;;;1.77;1.67;;;21.10;76.20;;;;;;4986565;28;20184;-70
2023/08/06 02:08:36;;;;;;;1.70;1.60;;;21.10;76.20;;;;;;4982070;28;20212;-70
2023/08/06 02:11:02;;;;;;;1.67;1.58;;;21.10;76.20;;;;;;4991369;28;20192;-70
2023/08/06 02:13:30;;;;;;;1.75;1.65;;;21.10;76.10;;;;;;5012200;28;20180;-70
2023/08/06 02:15:55;;;;;;;1.90;1.80;;;21.10;76.10;;;;;;5012105;28;20210;-69
2023/08/06 02:18:21;;;;;;;1.73;1.63;;;21.10;76.10;;;;;;4969896;28;20287;-70
2023/08/06 02:20:59;;;;;;;1.60;1.50;;;21.10;76.10;;;;;;4998580;28;20663;-70
2023/08/06 02:23:26;;;;;;;2.35;1.70;;;21.10;76.10;;;;;;5007119;28;20254;-70
2023/08/06 02:26:03;;;;;;;1.83;1.73;;;21.10;76.10;;;;;;4989243;28;20263;-70
2023/08/06 02:28:30;;;;;;;1.60;1.50;;;21.10;76.10;;;;;;4970046;28;20208;-70
2023/08/06 02:30:56;;;;;;;3.47;1.75;;;21.10;76.10;;;;;;5002682;28;20199;-70
2023/08/06 02:33:23;;;;;;;1.58;1.48;;;21.00;76.00;;;;;;5007508;28;20528;-70
2023/08/06 02:35:48;;;;;;;1.60;1.50;;;21.10;76.10;;;;;;4986598;28;20219;-70
2023/08/06 02:38:14;;;;;;;1.90;1.80;;;21.00;76.10;;;;;;5009243;28;20216;-70
2023/08/06 02:40:47;;;;;;;1.95;1.73;;;21.10;76.10;;;;;;4995934;28;20192;-70
2023/08/06 02:43:14;;;;;;;1.63;1.52;;;21.00;76.00;;;;;;4994414;28;20184;-70
2023/08/06 02:45:40;;;;;;;1.70;1.58;;;21.10;76.10;;;;;;4989985;28;20213;-70
2023/08/06 02:48:06;;;;;;;1.55;1.45;;;21.10;76.10;;;;;;5006834;28;20548;-70
2023/08/06 02:50:39;;;;;;;1.90;1.80;;;21.00;75.90;;;;;;5007548;28;20215;-70
2023/08/06 02:53:06;;;;;;;2.08;1.65;;;21.00;75.90;;;;;;5006921;28;20593;-70
2023/08/06 02:55:33;;;;;;;1.60;1.50;;;21.00;75.90;;;;;;4986080;28;20192;-70
2023/08/06 02:58:01;;;;;;;1.80;1.70;;;21.00;75.90;;;;;;4979149;28;20227;-70
2023/08/06 03:00:30;;;;;;;1.70;1.60;;;21.00;75.80;;;;;;4973996;28;20176;-70
2023/08/06 03:02:56;;;;;;;1.60;1.38;;;21.00;75.80;;;;;;4997927;28;20675;-70
2023/08/06 03:05:30;;;;;;;1.70;1.60;;;21.00;75.80;;;;;;4963579;28;20181;-70
2023/08/06 03:07:56;;;;;;;1.70;1.60;;;21.00;75.80;;;;;;4992402;28;20219;-71
2023/08/06 03:10:25;;;;;;;1.60;1.50;;;21.00;75.80;;;;;;4978473;28;20234;-70
2023/08/06 03:12:53;;;;;;;1.83;1.73;;;21.00;75.90;;;;;;4992030;28;20197;-70
2023/08/06 03:15:20;;;;;;;1.80;1.52;;;21.00;75.90;;;;;;4963528;28;20196;-70
2023/08/06 03:17:47;;;;;;;1.73;1.63;;;21.00;76.60;;;;;;4997325;28;20308;-70
2023/08/06 03:20:13;;;;;;;1.60;1.50;;;21.00;75.90;;;;;;4973323;28;20271;-70
2023/08/06 03:22:39;;;;;;;1.42;1.33;;;21.00;75.90;;;;;;4990244;28;20188;-70
2023/08/06 03:25:06;;;;;;;1.73;1.63;;;21.00;75.90;;;;;;4973993;28;20181;-70
2023/08/06 03:27:33;;;;;;;1.80;1.70;;;21.00;75.80;;;;;;4988513;28;20242;-70
2023/08/06 03:30:00;;;;;;;1.70;1.60;;;21.00;75.90;;;;;;5013822;28;20184;-70
2023/08/06 03:32:26;;;;;;;1.80;1.70;;;21.00;75.80;;;;;;4997327;28;20193;-70
2023/08/06 03:34:54;;;;;;;1.55;1.45;;;21.00;75.70;;;;;;4973120;28;20238;-71
2023/08/06 03:37:21;;;;;;;1.80;1.70;;;21.00;75.80;;;;;;4987774;28;20222;-70
2023/08/06 03:39:47;;;;;;;1.40;1.30;;;21.00;75.70;;;;;;4977847;28;20188;-70
2023/08/06 03:42:13;;;;;;;1.40;1.30;;;21.00;75.70;;;;;;4985684;28;20281;-69
2023/08/06 03:44:39;;;;;;;1.48;1.38;;;21.00;75.70;;;;;;4989356;28;20176;-70
2023/08/06 03:47:07;;;;;;;1.48;1.38;;;21.00;75.70;;;;;;4993630;28;20227;-70
2023/08/06 03:49:33;;;;;;;1.52;1.42;;;21.00;75.70;;;;;;4995292;28;20213;-70
2023/08/06 03:51:59;;;;;;;1.75;1.65;;;21.00;75.70;;;;;;4966641;28;20177;-70
2023/08/06 03:54:25;;;;;;;1.52;1.42;;;21.00;75.70;;;;;;4969634;28;20180;-70
2023/08/06 03:56:51;;;;;;;1.73;1.63;;;21.00;75.70;;;;;;4966182;28;20212;-70
2023/08/06 03:59:16;;;;;;;1.60;1.50;;;21.00;76.20;;;;;;4980759;28;20203;-68
2023/08/06 04:01:42;;;;;;;1.60;1.50;;;21.00;75.70;;;;;;4992999;28;20660;-70
2023/08/06 04:04:08;;;;;;;1.55;1.45;;;21.00;75.70;;;;;;4969340;28;20678;-70
2023/08/06 04:06:34;;;;;;;1.48;1.38;;;21.00;75.70;;;;;;5009788;28;20187;-69
2023/08/06 04:08:59;;;;;;;1.50;1.40;;;21.00;75.70;;;;;;4998946;28;20699;-70
2023/08/06 04:11:25;;;;;;;1.20;1.10;;;21.00;75.70;;;;;;4985066;28;20196;-70
2023/08/06 04:13:51;;;;;;;1.48;1.38;;;21.00;75.70;;;;;;4981998;28;20181;-70
2023/08/06 04:16:16;;;;;;;1.58;1.48;;;21.00;75.70;;;;;;4979901;28;20223;-70
2023/08/06 04:18:42;;;;;;;1.58;1.48;;;21.00;75.70;;;;;;5005772;28;20208;-71
2023/08/06 04:21:08;;;;;;;1.65;1.55;;;21.00;75.80;;;;;;4973756;28;20242;-70
2023/08/06 04:23:34;;;;;;;1.30;1.30;;;21.00;75.70;;;;;;5009248;28;20198;-69
2023/08/06 04:26:03;;;;;;;1.60;1.50;;;21.00;75.70;;;;;;4985525;28;20177;-69
2023/08/06 04:28:32;;;;;;;1.55;1.45;;;21.00;75.70;;;;;;4986627;28;20211;-69
2023/08/06 04:30:59;;;;;;;1.55;1.45;;;20.90;75.60;;;;;;4982781;28;20656;-70
2023/08/06 04:33:25;;;;;;;1.40;1.30;;;21.00;75.70;;;;;;4993983;28;20271;-70
2023/08/06 04:35:55;;;;;;;1.45;1.38;;;21.00;75.70;;;;;;4972503;28;20184;-70
2023/08/06 04:38:26;;;;;;;1.60;1.50;;;20.90;75.60;;;;;;4971088;28;20215;-70
2023/08/06 04:40:53;;;;;;;1.65;1.55;;;21.00;75.70;;;;;;4985061;28;20204;-70
2023/08/06 04:43:19;;;;;;;1.70;1.60;;;20.90;75.60;;;;;;4993037;28;20184;-69
2023/08/06 04:45:50;;;;;;;1.40;1.30;;;21.00;75.70;;;;;;5012424;28;20180;-70
2023/08/06 04:48:16;;;;;;;1.50;1.25;;;21.00;75.70;;;;;;5004189;28;20298;-70
2023/08/06 04:50:47;;;;;;;1.20;1.10;;;20.90;75.70;;;;;;5004052;28;20658;-70
2023/08/06 04:53:14;;;;;;;1.60;1.50;;;20.90;75.60;;;;;;4964766;28;20185;-70
2023/08/06 04:55:40;;;;;;;1.45;1.30;;;20.90;75.60;;;;;;5012176;28;20180;-70
2023/08/06 04:58:06;;;;;;;1.35;1.25;;;21.00;75.70;;;;;;4979711;28;20212;-70
2023/08/06 05:00:33;;;;;;;1.58;1.48;;;20.90;75.70;;;;;;4995628;28;20681;-70
2023/08/06 05:03:02;;;;;;;1.50;1.40;;;21.00;75.80;;;;;;4974740;28;20215;-71
2023/08/06 05:05:28;;;;;;;1.42;1.20;;;20.90;75.70;;;;;;4985280;28;20180;-70
2023/08/06 05:07:57;;;;;;;1.40;1.30;;;20.90;75.70;;;;;;5000305;28;20212;-71
2023/08/06 05:10:25;;;;;;;1.30;1.17;;;20.90;75.70;;;;;;4968366;28;20176;-70
2023/08/06 05:12:51;;;;;;;1.35;1.25;;;20.90;75.70;;;;;;4983429;28;20189;-70
2023/08/06 05:15:17;;;;;;;1.50;1.40;;;20.90;75.70;;;;;;4967712;28;20274;-70
2023/08/06 05:17:43;;;;;;;1.42;1.33;;;20.90;75.70;;;;;;4995092;28;20251;-70
2023/08/06 05:20:10;;;;;;;1.20;1.10;;;20.90;75.70;;;;;;5003794;28;20211;-70
2023/08/06 05:22:36;;;;;;;1.27;1.17;;;20.90;75.60;;;;;;4993562;28;20238;-69
2023/08/06 05:25:02;;;;;;;1.52;1.42;;;20.90;75.70;;;;;;4989167;28;20184;-70
2023/08/06 05:27:27;;;;;;;1.65;1.55;;;21.00;75.70;;;;;;4995289;28;20212;-70
2023/08/06 05:29:56;;;;;;;1.40;1.30;;;20.90;75.60;;;;;;5008470;28;20218;-70
2023/08/06 05:32:22;;;;;;;1.02;1.00;;;20.90;75.70;;;;;;4975678;28;20219;-70
2023/08/06 05:34:48;;;;;;;1.30;1.20;;;21.00;75.70;;;;;;5003228;28;20216;-70
2023/08/06 05:37:13;;;;;;;1.20;1.10;;;21.00;75.70;;;;;;4970830;28;20249;-70
2023/08/06 05:39:39;;;;;;;1.10;1.10;;;20.90;75.70;;;;;;4972849;28;20227;-70
2023/08/06 05:42:05;;;;;;;1.63;1.10;;;20.90;75.70;;;;;;4995129;28;20239;-71
2023/08/06 05:44:31;;;;;;;1.42;1.33;;;20.90;75.70;;;;;;4979130;28;20192;-70
2023/08/06 05:46:57;;;;;;;1.13;1.13;;;20.90;75.70;;;;;;4978474;28;20180;-71
2023/08/06 05:49:22;;;;;;;1.40;1.30;;;20.90;75.70;;;;;;4987458;28;20201;-70
2023/08/06 05:51:48;;;;;;;1.33;1.20;;;20.90;75.70;;;;;;4994658;28;20188;-70
2023/08/06 05:54:14;;;;;;;1.40;1.30;;;20.90;75.70;;;;;;5003105;28;20203;-70
2023/08/06 05:56:39;;;;;;;1.60;1.50;;;20.90;75.70;;;;;;4994152;28;20187;-70
2023/08/06 05:59:05;;;;;;;1.30;1.20;;;20.90;75.70;;;;;;4999526;28;20200;-70
2023/08/06 06:01:31;;;;;;;1.50;1.40;;;20.90;75.70;;;;;;4965155;28;20195;-70
2023/08/06 06:03:57;;;;;;;1.98;1.27;;;20.90;75.70;;;;;;4974795;28;20185;-69
2023/08/06 06:06:22;;;;;;;1.48;1.38;;;20.90;75.70;;;;;;4991323;28;20559;-70
2023/08/06 06:08:48;;;;;;;1.65;1.15;;;20.90;75.70;;;;;;4992275;28;20216;-70
2023/08/06 06:11:14;;;;;;;1.30;1.20;;;20.90;75.70;;;;;;5006962;28;20181;-70
2023/08/06 06:13:40;;;;;;;1.00;1.00;;;20.90;75.70;;;;;;4986396;28;20188;-72
2023/08/06 06:16:05;;;;;;;1.30;1.20;;;20.90;75.60;;;;;;4973314;28;20211;-70
2023/08/06 06:18:31;;;;;;;1.15;1.05;;;20.90;75.70;;;;;;4975509;28;20226;-69
2023/08/06 06:20:57;;;;;;;1.15;1.13;;;20.90;75.70;;;;;;4973671;28;20188;-69
2023/08/06 06:23:23;;;;;;;1.20;1.20;;;20.90;75.70;;;;;;4971443;28;20177;-70
2023/08/06 06:25:53;;;;;;;1.60;1.50;;;20.90;75.70;;;;;;4966962;28;20880;-70
2023/08/06 06:28:19;;;;;;;1.17;1.00;;;20.90;75.60;;;;;;4997820;28;20208;-70
2023/08/06 06:30:45;;;;;;;1.05;1.05;;;20.90;75.70;;;;;;4983759;28;20188;-70
2023/08/06 06:33:10;;;;;;;1.30;1.20;;;20.90;75.70;;;;;;4962985;28;20235;-70
2023/08/06 06:35:37;;;;;;;1.00;1.00;;;20.90;75.60;;;;;;4982980;28;20215;-70
2023/08/06 06:38:03;;;;;;;1.33;1.23;;;20.90;75.70;;;;;;4987212;28;20219;-70
2023/08/06 06:40:29;;;;;;;1.08;1.05;;;20.90;75.70;;;;;;4992331;28;20200;-72
2023/08/06 06:42:54;;;;;;;1.23;1.13;;;20.90;75.70;;;;;;4990985;28;20239;-70
2023/08/06 06:45:20;;;;;;;1.30;1.20;;;20.90;75.70;;;;;;4991877;28;20184;-69
2023/08/06 06:47:46;;;;;;;1.13;1.05;;;20.90;75.80;;;;;;4993883;28;20310;-69
2023/08/06 06:50:12;;;;;;;1.30;1.20;;;20.90;75.70;;;;;;5010568;28;20670;-69
2023/08/06 06:52:37;;;;;;;1.27;1.17;;;20.90;75.70;;;;;;5000062;28;20181;-70
2023/08/06 06:55:04;;;;;;;1.00;1.00;;;20.90;75.70;;;;;;4966767;28;20272;-69
2023/08/06 06:57:30;;;;;;;1.00;1.00;;;20.90;75.70;;;;;;4966079;28;20257;-68
2023/08/06 06:59:55;;;;;;;0.80;0.80;;;20.90;75.70;;;;;;4991111;28;20188;-70
2023/08/06 07:02:21;;;;;;;1.17;1.08;;;20.90;75.70;;;;;;4986208;28;20628;-70
2023/08/06 07:04:47;;;;;;;1.10;1.00;;;20.90;75.70;;;;;;4989371;28;20254;-70
2023/08/06 07:07:13;;;;;;;1.20;1.10;;;20.90;75.70;;;;;;4990899;28;20217;-69
2023/08/06 07:09:38;;;;;;;1.23;0.90;;;20.90;75.70;;;;;;4974675;28;20184;-70
2023/08/06 07:12:05;;;;;;;0.90;0.90;;;20.90;75.70;;;;;;4986620;28;20187;-70
2023/08/06 07:14:30;;;;;;;1.13;1.00;;;20.90;75.70;;;;;;4994132;28;20185;-70
2023/08/06 07:16:56;;;;;;;2.00;0.90;;;20.90;75.70;;;;;;4993403;28;20188;-70
2023/08/06 07:19:23;;;;;;;0.82;0.82;;;20.90;75.70;;;;;;4994013;28;20662;-72
2023/08/06 07:21:48;;;;;;;0.80;0.80;;;20.90;75.70;;;;;;4991862;28;20206;-70
2023/08/06 07:24:14;;;;;;;1.10;1.08;;;20.90;75.70;;;;;;4960389;28;20645;-71
2023/08/06 07:26:40;;;;;;;1.33;1.13;;;20.90;75.70;;;;;;4991101;28;20195;-70
2023/08/06 07:29:06;;;;;;;1.20;1.10;;;20.90;75.70;;;;;;4969771;28;20208;-70
2023/08/06 07:31:31;;;;;;;0.93;0.93;;;20.90;75.70;;;;;;4991908;28;20188;-70
2023/08/06 07:33:57;;;;;;;0.88;0.88;;;20.90;75.70;;;;;;4991100;28;20659;-70
2023/08/06 07:36:23;;;;;;;1.05;0.90;;;20.90;75.70;;;;;;4997021;28;20207;-70
2023/08/06 07:38:51;;;;;;;1.05;1.05;;;20.90;75.80;;;;;;4991854;28;20275;-70
2023/08/06 07:41:17;;;;;;;0.80;0.80;;;20.90;75.80;;;;;;4987978;28;20192;-72
2023/08/06 07:43:43;;;;;;;0.68;0.68;;;20.90;75.70;;;;;;5003183;28;20193;-71
2023/08/06 07:46:08;;;;;;;0.80;0.80;;;20.90;75.80;;;;;;5013083;28;20185;-70
2023/08/06 07:48:34;;;;;;;1.02;0.90;;;20.90;75.80;;;;;;4989152;28;20262;-70
2023/08/06 07:51:00;;;;;;;1.48;1.20;;;20.90;75.80;;;;;;4977887;28;20189;-70
2023/08/06 07:53:32;;;;;;;0.90;0.90;;;20.80;75.80;;;;;;4992462;28;20211;-70
2023/08/06 07:55:58;;;;;;;1.13;0.80;;;20.90;75.80;;;;;;4978202;28;20230;-71
2023/08/06 07:58:25;;;;;;;0.90;0.90;;;20.90;75.90;;;;;;4968896;28;20228;-71
2023/08/06 08:00:51;;;;;;;1.65;0.90;;;20.90;75.90;;;;;;5002984;28;20196;-70
2023/08/06 08:03:17;;;;;;;0.73;0.73;;;20.90;75.80;;;;;;4977331;28;20183;-70
2023/08/06 08:05:44;;;;;;;0.80;0.80;;;20.90;75.80;;;;;;4985430;28;20275;-70
2023/08/06 08:08:10;;;;;;;0.70;0.70;;;20.90;75.80;;;;;;4981516;28;20200;-71
2023/08/06 08:10:37;;;;;;;0.77;0.77;;;20.90;75.70;;;;;;4997439;28;20243;-69
2023/08/06 08:13:04;;;;;;;0.90;0.90;;;20.90;75.70;;;;;;4988704;28;20184;-70
2023/08/06 08:15:31;;;;;;;0.68;0.68;;;20.90;75.80;;;;;;4980751;28;20253;-69
2023/08/06 08:17:58;;;;;;;0.68;0.68;;;20.90;75.70;;;;;;4961863;28;20259;-70
2023/08/06 08:20:24;;;;;;;0.90;0.70;;;20.90;75.70;;;;;;5007642;28;20279;-70
2023/08/06 08:22:50;;;;;;;0.82;0.82;;;20.90;75.70;;;;;;5006135;28;20215;-71
2023/08/06 08:25:16;;;;;;;0.85;0.80;;;20.90;75.70;;;;;;5011921;28;20183;-70
2023/08/06 08:27:42;;;;;;;0.80;0.80;;;20.90;75.60;;;;;;5001982;28;20219;-70
2023/08/06 08:30:08;;;;;;;0.70;0.70;;;20.90;75.60;;;;;;4980542;28;20188;-70
2023/08/06 08:32:34;;;;;;;0.70;0.70;;;20.90;75.60;;;;;;4976461;28;20197;-70
2023/08/06 08:34:59;;;;;;;1.38;0.80;;;21.00;75.70;;;;;;4972508;28;20195;-71
2023/08/06 08:37:25;;;;;;;0.90;0.90;;;20.90;75.60;;;;;;5010969;28;20223;-69
2023/08/06 08:39:52;;;;;;;0.70;0.70;;;20.90;75.60;;;;;;5005558;28;20232;-71
2023/08/06 08:42:18;;;;;;;0.75;0.75;;;20.90;75.60;;;;;;4983317;28;20183;-70
2023/08/06 08:44:45;;;;;;;1.38;0.60;;;21.00;75.70;;;;;;4976641;28;20183;-70
2023/08/06 08:47:12;;;;;;;0.60;0.60;;;20.90;75.60;;;;;;4998592;28;20185;-71
2023/08/06 08:49:40;;;;;;;0.95;0.80;;;21.00;75.70;;;;;;4995246;28;20192;-71
2023/08/06 08:52:11;;;;;;;0.75;0.75;;;21.00;75.70;;;;;;4987867;28;20646;-71
2023/08/06 08:54:38;;;;;;;0.70;0.70;;;21.00;75.70;;;;;;4971731;28;20188;-71
2023/08/06 08:57:05;;;;;;;0.82;0.82;;;21.00;75.70;;;;;;4967648;28;20252;-71
2023/08/06 08:59:33;;;;;;;1.23;0.90;;;21.00;75.70;;;;;;5000765;28;20212;-70
2023/08/06 09:02:01;;;;;;;1.13;0.65;;;21.00;75.70;;;;;;4992673;28;20177;-71
2023/08/06 09:04:31;;;;;;;0.70;0.70;;;20.90;75.60;;;;;;4990264;28;20188;-71
2023/08/06 09:06:59;;;;;;;0.55;0.55;;;21.00;75.70;;;;;;5003129;28;20271;-70
2023/08/06 09:09:37;;;;;;;0.60;0.60;;;21.00;75.70;;;;;;4989681;28;20569;-69
2023/08/06 09:12:15;;;;;;;2.10;0.70;;;21.00;75.70;;;;;;4984434;28;20212;-69
2023/08/06 09:14:41;;;;;;;0.50;0.50;;;21.00;75.70;;;;;;4993657;28;20238;-70
2023/08/06 09:17:07;;;;;;;1.55;0.93;;;21.00;75.70;;;;;;5008301;28;20288;-70
2023/08/06 09:19:33;;;;;;;1.38;0.70;;;21.00;75.70;;;;;;5001816;28;20219;-70
2023/08/06 09:21:59;;;;;;;0.60;0.60;;;21.00;75.70;;;;;;4969506;28;20184;-70
2023/08/06 09:24:26;;;;;;;0.60;0.60;;;21.00;75.70;;;;;;5006653;28;20247;-68
2023/08/06 09:26:52;;;;;;;0.60;0.60;;;21.00;75.70;;;;;;4983981;28;20188;-69
2023/08/06 09:29:18;;;;;;;0.88;0.80;;;21.00;75.70;;;;;;4991049;28;20640;-70
2023/08/06 09:31:51;;;;;;;0.90;0.70;;;21.00;75.70;;;;;;4991453;28;20207;-70
2023/08/06 09:34:23;;;;;;;0.70;0.70;;;21.00;75.70;;;;;;5006560;28;20185;-70
2023/08/06 09:36:53;;;;;;;0.60;0.60;;;21.00;75.70;;;;;;4975684;28;20219;-70
2023/08/06 09:39:28;;;;;;;0.60;0.60;;;21.00;75.70;;;;;;5008299;28;20557;-70
2023/08/06 09:42:00;;;;;;;0.70;0.70;;;21.00;75.70;;;;;;5002028;28;20270;-70
2023/08/06 09:44:28;;;;;;;0.60;0.60;;;21.00;75.70;;;;;;5011808;28;20181;-71
2023/08/06 09:46:59;;;;;;;1.80;0.75;;;21.00;75.70;;;;;;4997217;28;20183;-70
2023/08/06 09:49:28;;;;;;;0.88;0.65;;;21.00;75.70;;;;;;5006680;28;20271;-70
2023/08/06 09:51:59;;;;;;;0.70;0.70;;;21.00;75.70;;;;;;5000654;28;20196;-70
2023/08/06 09:54:27;;;;;;;0.70;0.70;;;21.00;75.70;;;;;;4990338;28;20204;-72
2023/08/06 09:56:54;;;;;;;0.95;0.80;;;21.00;75.70;;;;;;4999364;28;20191;-70
2023/08/06 09:59:20;;;;;;;0.80;0.80;;;21.00;75.70;;;;;;4979627;28;20644;-70
2023/08/06 10:01:46;;;;;;;0.70;0.70;;;21.00;75.70;;;;;;5004272;28;20184;-70
2023/08/06 10:04:16;;;;;;;0.70;0.70;;;21.00;75.60;;;;;;5001460;28;20193;-70
2023/08/06 10:06:47;;;;;;;1.02;0.68;;;21.00;75.70;;;;;;5006419;28;20196;-70
2023/08/06 10:09:12;;;;;;;0.52;0.52;;;21.00;75.60;;;;;;4978082;28;20200;-70
2023/08/06 10:11:39;;;;;;;0.60;0.60;;;21.00;75.70;;;;;;4994787;28;20175;-70
2023/08/06 10:14:23;;;;;;;2.30;0.70;;;21.00;75.70;;;;;;4984878;28;20189;-70
2023/08/06 10:16:50;;;;;;;1.08;0.60;;;21.10;76.50;;;;;;4982734;28;20186;-70
2023/08/06 10:19:18;;;;;;;0.73;0.73;;;21.00;75.70;;;;;;5002783;28;20239;-71
2023/08/06 10:22:11;;;;;;;0.60;0.60;;;21.00;75.70;;;;;;4997081;28;20224;-70
2023/08/06 10:24:57;;;;;;;0.70;0.70;;;21.00;75.70;;;;;;4973387;28;20188;-70
2023/08/06 10:27:52;;;;;;;0.60;0.60;;;21.00;75.70;;;;;;4990250;28;20205;-71
2023/08/06 10:30:32;;;;;;;0.70;0.60;;;21.00;75.80;;;;;;4994754;28;20187;-71
2023/08/06 10:33:03;;;;;;;0.43;0.40;;;21.00;75.70;;;;;;5002712;28;20223;-71
2023/08/06 10:35:50;;;;;;;0.52;0.52;;;21.00;75.70;;;;;;4994728;28;20180;-70
2023/08/06 10:38:26;;;;;;;0.60;0.60;;;21.00;75.70;;;;;;4991237;28;20224;-70
2023/08/06 10:40:54;;;;;;;0.65;0.60;;;21.00;75.70;;;;;;4999445;28;20243;-72
2023/08/06 10:43:32;;;;;;;0.85;0.70;;;21.00;75.70;;;;;;4999211;28;20256;-70
2023/08/06 10:46:01;;;;;;;1.55;0.60;;;21.00;75.70;;;;;;4967589;28;20180;-71
2023/08/06 10:48:41;;;;;;;0.70;0.55;;;21.00;75.70;;;;;;4973414;28;20303;-70
2023/08/06 10:51:12;;;;;;;1.63;0.50;;;21.00;75.80;;;;;;5007172;28;20188;-71
2023/08/06 10:53:43;;;;;;;1.02;0.60;;;21.00;76.60;;;;;;4983140;28;20204;-70
2023/08/06 10:56:14;;;;;;;1.23;0.70;;;21.00;75.80;;;;;;4982783;28;20177;-70
2023/08/06 10:58:40;;;;;;;0.68;0.68;;;21.00;75.80;;;;;;4987976;28;20719;-70
2023/08/06 11:01:06;;;;;;;0.43;0.43;;;21.00;75.70;;;;;;5007401;28;20193;-71
2023/08/06 11:03:33;;;;;;;0.77;0.77;;;21.00;75.80;;;;;;4982972;28;20196;-71
2023/08/06 11:06:00;;;;;;;1.00;0.70;;;21.00;75.80;;;;;;4992637;28;20260;-71
2023/08/06 11:08:27;;;;;;;1.35;1.00;;;21.00;75.70;;;;;;4973975;28;20205;-70
2023/08/06 11:10:53;;;;;;;1.25;0.73;;;21.00;75.70;;;;;;5007892;28;20184;-70
2023/08/06 11:13:21;;;;;;;1.05;0.60;;;21.00;75.70;;;;;;4986067;28;20188;-70
2023/08/06 11:15:47;;;;;;;0.60;0.60;;;21.00;75.80;;;;;;5011625;28;20199;-71
2023/08/06 11:18:13;;;;;;;0.50;0.50;;;21.00;75.70;;;;;;4983489;28;20225;-70
2023/08/06 11:20:39;;;;;;;0.60;0.60;;;21.00;75.70;;;;;;4995771;28;20185;-72
2023/08/06 11:23:06;;;;;;;0.63;0.60;;;21.00;75.70;;;;;;4979581;28;20192;-70
2023/08/06 11:25:36;;;;;;;0.50;0.47;;;21.00;75.70;;;;;;4969123;28;20200;-70
2023/08/06 11:28:02;;;;;;;1.55;0.65;;;21.00;75.70;;;;;;4961795;28;20240;-71
2023/08/06 11:30:28;;;;;;;0.88;0.70;;;21.00;75.80;;;;;;4966215;28;20216;-70
2023/08/06 11:32:54;;;;;;;0.40;0.40;;;21.00;75.80;;;;;;4982239;28;20232;-70
2023/08/06 11:35:19;;;;;;;0.82;0.50;;;21.00;75.80;;;;;;4986592;28;20189;-72
2023/08/06 11:37:46;;;;;;;0.80;0.75;;;21.00;75.80;;;;;;4985796;28;20208;-70
2023/08/06 11:40:15;;;;;;;0.50;0.43;;;21.00;75.80;;;;;;5010390;28;20210;-71
2023/08/06 11:42:42;;;;;;;1.73;0.70;;;21.00;75.80;;;;;;5002468;28;20193;-70
2023/08/06 11:45:11;;;;;;;0.50;0.50;;;21.00;75.80;;;;;;4962776;28;20193;-71
2023/08/06 11:47:40;;;;;;;0.57;0.40;;;21.00;75.80;;;;;;4988830;28;20318;-70
2023/08/06 11:50:06;;;;;;;1.48;0.70;;;21.00;75.80;;;;;;4994614;28;20185;-70
2023/08/06 11:52:32;;;;;;;0.57;0.45;;;21.00;75.80;;;;;;4984812;28;20196;-70
2023/08/06 11:55:08;;;;;;;1.08;0.55;;;21.00;75.80;;;;;;4993658;28;20192;-70
2023/08/06 11:57:44;;;;;;;0.50;0.50;;;21.00;75.80;;;;;;5005930;28;20281;-70
2023/08/06 12:00:14;;;;;;;0.40;0.40;;;21.00;75.80;;;;;;5006429;28;20244;-70
2023/08/06 12:02:45;;;;;;;0.50;0.50;;;21.00;75.80;;;;;;5005078;28;20190;-70
2023/08/06 12:05:14;;;;;;;0.47;0.47;;;21.00;75.80;;;;;;4972433;28;20276;-70
2023/08/06 12:07:49;;;;;;;0.60;0.60;;;21.00;75.80;;;;;;4996862;28;20219;-70
2023/08/06 12:10:16;;;;;;;0.50;0.50;;;21.00;75.80;;;;;;4980601;28;20250;-70
2023/08/06 12:12:42;;;;;;;0.50;0.40;;;21.00;75.80;;;;;;4983717;28;20200;-70
2023/08/06 12:15:09;;;;;;;0.57;0.57;;;21.00;75.70;;;;;;4994005;28;20184;-71
2023/08/06 12:17:36;;;;;;;0.63;0.57;;;21.10;75.90;;;;;;5004461;28;20224;-71
2023/08/06 12:20:05;;;;;;;0.50;0.50;;;21.10;75.80;;;;;;4988650;28;20247;-72
2023/08/06 12:22:34;;;;;;;0.50;0.50;;;21.10;75.80;;;;;;4993260;28;20217;-71
2023/08/06 12:25:08;;;;;;;0.52;0.52;;;21.10;75.70;;;;;;4977493;28;20208;-71
2023/08/06 12:27:43;;;;;;;0.60;0.60;;;21.10;76.40;;;;;;4981158;28;20216;-70
2023/08/06 12:30:10;;;;;;;0.50;0.50;;;21.10;75.70;;;;;;4987100;28;20191;-71
2023/08/06 12:32:36;;;;;;;0.57;0.40;;;21.10;75.60;;;;;;4981069;28;20191;-72
2023/08/06 12:35:03;;;;;;;0.45;0.45;;;21.10;75.70;;;;;;4988711;28;20224;-71
2023/08/06 12:37:29;;;;;;;0.60;0.60;;;21.10;75.70;;;;;;4963497;28;20204;-70
2023/08/06 12:39:54;;;;;;;0.93;0.50;;;21.10;75.70;;;;;;4995945;28;20219;-71
2023/08/06 12:42:20;;;;;;;0.43;0.43;;;21.10;75.60;;;;;;4985823;28;20189;-71
2023/08/06 12:44:48;;;;;;;0.60;0.60;;;21.10;75.70;;;;;;5000637;28;20188;-72
2023/08/06 12:47:16;;;;;;;0.50;0.40;;;21.10;75.70;;;;;;5010340;28;20325;-71
2023/08/06 12:49:41;;;;;;;0.40;0.40;;;21.10;75.70;;;;;;4997791;28;20246;-70